Terminal Aerodrome Forecast
Issued by NWS Pittsburgh, PA

Current Version | Previous Version | Graphics & Text | Print | Product List | Glossary On
Versions: 1 2 3 4 5 6 7 8 9 10 11 12 13 14 15 16 17 18 19 20 21 22 23 24 25 26 27 28
000
FTUS41 KPBZ 241500 AAA
TAFPIT
TAF AMD
KPIT 241507Z 2415/2518 19008KT P6SM SCT200
     FM241800 20010G20KT P6SM BKN120
     FM250400 24010KT 5SM -SN OVC015
     FM250900 26009KT P6SM OVC020=

USA.gov is the U.S. government's official web portal to all federal, state and local government web resources and services.